createdAt,value
2017-10-30T00:00:13.591Z,99513.09
2017-10-30T00:02:39.979Z,99524.59
2017-10-30T00:05:06.335Z,99527.70
2017-10-30T00:07:32.646Z,99518.59
2017-10-30T00:09:58.953Z,99517.75
2017-10-30T00:12:25.996Z,99517.80
2017-10-30T00:14:53.242Z,99520.19
2017-10-30T00:17:19.513Z,99525.48
2017-10-30T00:19:45.798Z,99527.45
2017-10-30T00:22:12.138Z,99529.47
2017-10-30T00:24:38.535Z,99529.89
2017-10-30T00:27:04.903Z,99534.41
2017-10-30T00:29:31.302Z,99540.67
2017-10-30T00:31:57.637Z,99531.70
2017-10-30T00:34:23.944Z,99551.46
2017-10-30T00:36:51.486Z,99538.16
2017-10-30T00:39:17.791Z,99533.16
2017-10-30T00:41:44.047Z,99537.18
2017-10-30T00:44:10.717Z,99535.87
2017-10-30T00:46:36.993Z,99539.23
2017-10-30T00:49:03.301Z,99554.48
2017-10-30T00:51:29.583Z,99553.39
2017-10-30T00:53:56.584Z,99558.38
2017-10-30T00:56:22.883Z,99551.70
2017-10-30T00:58:49.285Z,99553.18
2017-10-30T01:01:15.629Z,99553.06
2017-10-30T01:03:42.722Z,99558.30
2017-10-30T01:06:09.043Z,99550.03
2017-10-30T01:08:36.214Z,99560.56
2017-10-30T01:11:02.537Z,99557.28
2017-10-30T01:13:28.810Z,99558.67
2017-10-30T01:15:55.910Z,99567.55
2017-10-30T01:18:22.232Z,99565.59
2017-10-30T01:20:48.545Z,99572.46
2017-10-30T01:23:15.599Z,99581.62
2017-10-30T01:25:42.570Z,99576.19
2017-10-30T01:28:09.308Z,99584.03
2017-10-30T01:30:35.657Z,99590.80
2017-10-30T01:33:01.961Z,99584.38
2017-10-30T01:35:28.243Z,99590.73
2017-10-30T01:37:54.644Z,99579.81
2017-10-30T01:40:21.037Z,99582.78
2017-10-30T01:42:48.066Z,99593.95
2017-10-30T01:45:15.194Z,99586.77
2017-10-30T01:47:41.539Z,99580.80
2017-10-30T01:50:07.862Z,99584.36
2017-10-30T01:52:34.206Z,99581.81
2017-10-30T01:55:00.490Z,99598.19
2017-10-30T01:57:26.785Z,99586.71
2017-10-30T01:59:53.834Z,99590.39
2017-10-30T02:02:21.016Z,99590.20
2017-10-30T02:04:47.697Z,99579.37
2017-10-30T02:07:14.865Z,99584.69
2017-10-30T02:09:48.823Z,99592.73
2017-10-30T02:12:15.315Z,99602.48
2017-10-30T02:14:42.409Z,99586.55
2017-10-30T02:17:08.700Z,99629.64
2017-10-30T02:19:35.729Z,99586.30
2017-10-30T02:22:02.792Z,99597.23
2017-10-30T02:24:29.821Z,99602.31
2017-10-30T02:26:56.148Z,99581.91
2017-10-30T02:29:22.430Z,99609.66
2017-10-30T02:31:48.879Z,99609.98
2017-10-30T02:34:15.274Z,99603.50
2017-10-30T02:36:42.314Z,99603.16
2017-10-30T02:39:09.448Z,99606.63
2017-10-30T02:41:35.775Z,99615.72
2017-10-30T02:44:02.165Z,99620.87
2017-10-30T02:46:28.568Z,99621.17
2017-10-30T02:48:55.717Z,99628.66
2017-10-30T02:51:23.771Z,99627.52
2017-10-30T02:53:50.901Z,99631.73
2017-10-30T02:56:17.262Z,99642.09
2017-10-30T02:58:44.378Z,99640.52
2017-10-30T03:01:17.884Z,99633.16
2017-10-30T03:03:44.237Z,99643.93
2017-10-30T03:06:11.329Z,99641.98
2017-10-30T03:08:37.736Z,99643.89
2017-10-30T03:11:04.069Z,99659.27
2017-10-30T03:13:30.521Z,99665.71
2017-10-30T03:15:56.822Z,99654.11
2017-10-30T03:18:23.905Z,99664.91
2017-10-30T03:20:50.197Z,99666.58
2017-10-30T03:23:17.247Z,99669.70
2017-10-30T03:25:44.391Z,99675.23
2017-10-30T03:28:10.722Z,99682.89
2017-10-30T03:30:37.073Z,99685.47
2017-10-30T03:33:03.426Z,99693.16
2017-10-30T03:35:29.784Z,99692.45
2017-10-30T03:37:56.084Z,99696.68
2017-10-30T03:40:22.444Z,99690.75
2017-10-30T03:42:48.756Z,99692.28
2017-10-30T03:45:15.116Z,99687.03
2017-10-30T03:47:41.473Z,99697.80
2017-10-30T03:50:08.626Z,99693.67
2017-10-30T03:52:35.713Z,99708.69
2017-10-30T03:55:02.086Z,99707.31
2017-10-30T03:57:28.410Z,99703.70
2017-10-30T03:59:55.729Z,99709.28
2017-10-30T04:02:22.777Z,99712.52
2017-10-30T04:04:49.145Z,99723.23
2017-10-30T04:07:15.465Z,99714.55
2017-10-30T04:09:41.771Z,99735.67
2017-10-30T04:12:08.066Z,99721.09
2017-10-30T04:14:34.362Z,99748.27
2017-10-30T04:17:00.698Z,99732.06
2017-10-30T04:19:26.966Z,99730.91
2017-10-30T04:21:54.066Z,99749.07
2017-10-30T04:24:20.436Z,99740.63
2017-10-30T04:26:47.486Z,99735.93
2017-10-30T04:29:13.820Z,99751.75
2017-10-30T04:31:40.886Z,99729.41
2017-10-30T04:34:07.327Z,99735.97
2017-10-30T04:36:33.683Z,99735.80
2017-10-30T04:39:00.077Z,99737.89
2017-10-30T04:41:27.988Z,99736.89
2017-10-30T04:43:55.546Z,99744.28
2017-10-30T04:46:21.831Z,99742.81
2017-10-30T04:48:48.186Z,99733.66
2017-10-30T04:51:14.471Z,99741.81
2017-10-30T04:53:40.821Z,99742.16
2017-10-30T04:56:07.251Z,99752.92
2017-10-30T04:58:33.612Z,99745.38
2017-10-30T05:01:01.957Z,99749.99
2017-10-30T05:03:28.319Z,99761.88
2017-10-30T05:05:59.210Z,99759.04
2017-10-30T05:08:25.503Z,99752.22
2017-10-30T05:10:51.874Z,99763.36
2017-10-30T05:13:18.412Z,99762.02
2017-10-30T05:15:44.734Z,99758.45
2017-10-30T05:18:11.070Z,99767.89
2017-10-30T05:20:37.429Z,99762.39
2017-10-30T05:23:03.725Z,99768.44
2017-10-30T05:25:30.030Z,99765.56
2017-10-30T05:27:56.473Z,99780.02
2017-10-30T05:30:22.826Z,99773.97
2017-10-30T05:32:49.171Z,99775.22
2017-10-30T05:35:15.572Z,99772.02
2017-10-30T05:37:42.087Z,99770.55
2017-10-30T05:40:08.475Z,99775.65
2017-10-30T05:42:34.860Z,99767.75
2017-10-30T05:45:01.193Z,99787.08
2017-10-30T05:47:29.708Z,99789.42
2017-10-30T05:49:56.275Z,99782.91
2017-10-30T05:52:22.674Z,99800.47
2017-10-30T05:54:49.168Z,99721.50
2017-10-30T05:57:15.468Z,99816.48
2017-10-30T05:59:41.799Z,99816.98
2017-10-30T06:02:08.904Z,99828.64
2017-10-30T06:04:35.298Z,99830.70
2017-10-30T06:07:01.838Z,99833.23
2017-10-30T06:09:29.107Z,99875.64
2017-10-30T06:11:55.500Z,99848.16
2017-10-30T06:14:22.628Z,99848.79
2017-10-30T06:16:48.980Z,99852.33
2017-10-30T06:19:16.126Z,99860.86
2017-10-30T06:21:43.215Z,99898.48
2017-10-30T06:24:09.520Z,99873.14
2017-10-30T06:26:36.616Z,99898.89
2017-10-30T06:29:03.070Z,99874.78
2017-10-30T06:31:29.370Z,99890.73
2017-10-30T06:33:55.850Z,99902.80
2017-10-30T06:36:23.043Z,99902.84
2017-10-30T06:38:49.380Z,99928.16
2017-10-30T06:41:15.677Z,99913.09
2017-10-30T06:43:42.733Z,99913.70
2017-10-30T06:46:09.771Z,99922.71
2017-10-30T06:48:36.812Z,99939.30
2017-10-30T06:51:03.975Z,99931.00
2017-10-30T06:53:31.044Z,99924.31
2017-10-30T06:55:57.425Z,99936.98
2017-10-30T06:58:24.093Z,99947.98
2017-10-30T07:00:50.764Z,99929.69
2017-10-30T07:03:17.129Z,99956.30
2017-10-30T07:05:43.485Z,99947.26
2017-10-30T07:08:09.874Z,99958.40
2017-10-30T07:10:36.601Z,99960.12
2017-10-30T07:13:02.924Z,99961.93
2017-10-30T07:15:29.228Z,99967.03
2017-10-30T07:17:56.400Z,99961.22
2017-10-30T07:20:22.704Z,99967.09
2017-10-30T07:22:49.927Z,99967.31
2017-10-30T07:25:16.284Z,99973.85
2017-10-30T07:27:43.436Z,99982.23
2017-10-30T07:30:09.941Z,99990.62
2017-10-30T07:32:36.370Z,99985.70
2017-10-30T07:35:02.722Z,99994.44
2017-10-30T07:37:29.149Z,99990.48
2017-10-30T07:39:55.567Z,99985.79
2017-10-30T07:42:21.964Z,99994.27
2017-10-30T07:44:48.283Z,99996.16
2017-10-30T07:47:14.602Z,100013.72
2017-10-30T07:49:41.744Z,100002.43
2017-10-30T07:52:08.149Z,100006.77
2017-10-30T07:54:34.816Z,100016.56
2017-10-30T07:57:01.993Z,100009.13
2017-10-30T07:59:28.325Z,100013.02
2017-10-30T08:01:54.689Z,100022.53
2017-10-30T08:04:21.260Z,100024.66
2017-10-30T08:06:47.623Z,100023.16
2017-10-30T08:09:15.115Z,100022.73
2017-10-30T08:11:47.410Z,100034.42
2017-10-30T08:14:13.822Z,100007.50
2017-10-30T08:16:40.170Z,100019.45
2017-10-30T08:19:06.527Z,100025.84
2017-10-30T08:21:33.165Z,100027.95
2017-10-30T08:24:00.541Z,100038.81
2017-10-30T08:26:27.483Z,100039.89
2017-10-30T08:28:55.717Z,100039.28
2017-10-30T08:31:22.318Z,100033.94
2017-10-30T08:33:49.346Z,100050.47
2017-10-30T08:36:15.667Z,100046.68
2017-10-30T08:38:43.727Z,100044.03
2017-10-30T08:41:10.226Z,100061.95
2017-10-30T08:43:36.774Z,100064.48
2017-10-30T08:46:03.445Z,100070.52
2017-10-30T08:48:30.568Z,100059.19
2017-10-30T08:50:56.940Z,100071.66
2017-10-30T08:53:30.530Z,100068.36
2017-10-30T08:55:57.079Z,100071.14
2017-10-30T08:58:23.574Z,100060.63
2017-10-30T09:00:50.250Z,100102.69
2017-10-30T09:03:17.423Z,100054.90
2017-10-30T09:05:43.886Z,100090.14
2017-10-30T09:08:10.278Z,100090.59
2017-10-30T09:10:36.649Z,100095.89
2017-10-30T09:13:09.302Z,100108.26
2017-10-30T09:15:35.734Z,100093.48
2017-10-30T09:18:02.093Z,100095.51
2017-10-30T09:20:28.460Z,100101.47
2017-10-30T09:22:55.584Z,100105.55
2017-10-30T09:25:21.928Z,100095.81
2017-10-30T09:28:05.774Z,100100.97
2017-10-30T09:30:32.339Z,100102.22
2017-10-30T09:33:00.463Z,100117.92
2017-10-30T09:35:35.037Z,100116.84
2017-10-30T09:38:01.495Z,100126.85
2017-10-30T09:40:29.958Z,100117.03
2017-10-30T09:42:57.066Z,100123.81
2017-10-30T09:45:23.391Z,100122.45
2017-10-30T09:47:49.867Z,100118.70
2017-10-30T09:50:16.984Z,100115.28
2017-10-30T09:52:43.400Z,100118.73
2017-10-30T09:55:10.637Z,100123.17
2017-10-30T09:57:37.056Z,100129.44
2017-10-30T10:00:03.544Z,100136.36
2017-10-30T10:02:29.832Z,100127.95
2017-10-30T10:04:56.301Z,100132.97
2017-10-30T10:07:22.697Z,100135.77
2017-10-30T10:09:50.156Z,100138.73
2017-10-30T10:12:16.848Z,100155.58
2017-10-30T10:14:44.056Z,100138.00
2017-10-30T10:17:10.406Z,100143.52
2017-10-30T10:19:36.900Z,100196.20
2017-10-30T10:22:03.263Z,100144.05
2017-10-30T10:24:29.810Z,100153.20
2017-10-30T10:26:56.278Z,100148.91
2017-10-30T10:29:23.352Z,100149.70
2017-10-30T10:31:49.785Z,100147.23
2017-10-30T10:34:16.281Z,100145.42
2017-10-30T10:36:42.675Z,100157.93
2017-10-30T10:39:09.078Z,100167.49
2017-10-30T10:41:35.537Z,100156.23
2017-10-30T10:44:01.979Z,100155.63
2017-10-30T10:46:28.315Z,100166.23
2017-10-30T10:48:54.724Z,100156.19
2017-10-30T10:51:21.108Z,100155.51
2017-10-30T10:53:47.452Z,100154.48
2017-10-30T10:56:14.595Z,100158.97
2017-10-30T10:58:40.990Z,100155.88
2017-10-30T11:01:07.339Z,100149.14
2017-10-30T11:03:33.809Z,100169.31
2017-10-30T11:06:00.869Z,100165.58
2017-10-30T11:08:27.225Z,100160.34
2017-10-30T11:10:53.578Z,100176.39
2017-10-30T11:13:19.962Z,100164.73
2017-10-30T11:15:47.052Z,100160.14
2017-10-30T11:18:14.170Z,100143.08
2017-10-30T11:20:40.666Z,100170.44
2017-10-30T11:23:07.040Z,100162.37
2017-10-30T11:25:33.353Z,100168.55
2017-10-30T11:28:00.569Z,100167.60
2017-10-30T11:30:27.022Z,100183.59
2017-10-30T11:33:00.767Z,100160.58
2017-10-30T11:35:27.133Z,100191.45
2017-10-30T11:37:53.516Z,100178.56
2017-10-30T11:40:20.602Z,100188.92
2017-10-30T11:42:47.026Z,100166.89
2017-10-30T11:45:13.488Z,100177.94
2017-10-30T11:47:39.859Z,100171.39
2017-10-30T11:50:06.997Z,100178.66
2017-10-30T11:52:34.103Z,100189.73
2017-10-30T11:55:00.481Z,100193.14
2017-10-30T11:57:27.573Z,100188.47
2017-10-30T11:59:53.959Z,100191.56
2017-10-30T12:02:20.351Z,100194.33
2017-10-30T12:04:46.808Z,100182.28
2017-10-30T12:07:13.258Z,100200.94
2017-10-30T12:09:39.676Z,100190.88
2017-10-30T12:12:06.017Z,100197.22
2017-10-30T12:14:32.553Z,100205.92
2017-10-30T12:16:58.895Z,100192.91
2017-10-30T12:19:26.023Z,100204.26
2017-10-30T12:21:52.380Z,100209.78
2017-10-30T12:24:19.536Z,100205.06
2017-10-30T12:26:46.787Z,100202.36
2017-10-30T12:29:13.881Z,100267.16
2017-10-30T12:31:40.259Z,100223.23
2017-10-30T12:34:07.680Z,100225.33
2017-10-30T12:36:34.142Z,100221.83
2017-10-30T12:39:00.559Z,100219.24
2017-10-30T12:41:26.901Z,100198.81
2017-10-30T12:43:53.248Z,100216.28
2017-10-30T12:46:20.367Z,100243.28
2017-10-30T12:48:46.684Z,100220.30
2017-10-30T12:51:13.108Z,100239.16
2017-10-30T12:53:39.437Z,100230.11
2017-10-30T12:56:05.865Z,100236.05
2017-10-30T12:58:32.180Z,100245.51
2017-10-30T13:00:58.465Z,100239.09
2017-10-30T13:03:24.851Z,100239.11
2017-10-30T13:05:51.196Z,100245.22
2017-10-30T13:08:17.636Z,100252.75
2017-10-30T13:10:44.025Z,100233.55
2017-10-30T13:13:11.180Z,100236.11
2017-10-30T13:15:38.217Z,100255.55
2017-10-30T13:18:05.598Z,100235.44
2017-10-30T13:20:31.980Z,100297.80
2017-10-30T13:22:58.429Z,100253.02
2017-10-30T13:25:24.702Z,100270.63
2017-10-30T13:27:50.996Z,100258.12
2017-10-30T13:30:18.149Z,100260.78
2017-10-30T13:32:45.358Z,100266.23
2017-10-30T13:35:11.831Z,100280.56
2017-10-30T13:37:38.990Z,100268.36
2017-10-30T13:40:06.250Z,100261.64
2017-10-30T13:42:33.649Z,100266.95
2017-10-30T13:44:59.997Z,100268.83
2017-10-30T13:47:26.494Z,100273.58
2017-10-30T13:49:52.904Z,100276.20
2017-10-30T13:52:20.014Z,100277.97
2017-10-30T13:54:46.473Z,100286.82
2017-10-30T13:57:12.838Z,100285.66
2017-10-30T13:59:39.523Z,100286.74
2017-10-30T14:02:05.824Z,100278.77
2017-10-30T14:04:32.281Z,100278.98
2017-10-30T14:06:58.755Z,100289.10
2017-10-30T14:09:25.864Z,100283.61
2017-10-30T14:11:52.220Z,100287.20
2017-10-30T14:14:18.546Z,100297.37
2017-10-30T14:16:46.357Z,100294.67
2017-10-30T14:19:12.678Z,100290.55
2017-10-30T14:21:39.022Z,100296.00
2017-10-30T14:24:05.426Z,100297.15
2017-10-30T14:26:32.481Z,100291.94
2017-10-30T14:28:59.545Z,100292.34
2017-10-30T14:31:25.940Z,100312.94
2017-10-30T14:33:52.241Z,100299.51
2017-10-30T14:36:18.571Z,100300.96
2017-10-30T14:38:45.008Z,100304.84
2017-10-30T14:41:11.459Z,100309.73
2017-10-30T14:43:37.934Z,100311.81
2017-10-30T14:46:04.410Z,100322.21
2017-10-30T14:48:30.790Z,100320.09
2017-10-30T14:50:57.842Z,100323.52
2017-10-30T14:53:24.247Z,100329.06
2017-10-30T14:55:50.554Z,100330.11
2017-10-30T14:58:16.970Z,100331.97
2017-10-30T15:00:43.346Z,100335.03
2017-10-30T15:03:09.694Z,100332.44
2017-10-30T15:05:37.033Z,100344.09
2017-10-30T15:08:03.484Z,100347.37
2017-10-30T15:10:30.177Z,100349.52
2017-10-30T15:12:56.545Z,100349.50
2017-10-30T15:15:22.921Z,100339.78
2017-10-30T15:17:49.371Z,100355.41
2017-10-30T15:20:15.809Z,100362.95
2017-10-30T15:22:42.296Z,100361.89
2017-10-30T15:25:09.419Z,100359.64
2017-10-30T15:27:35.934Z,100366.30
2017-10-30T15:30:02.388Z,100371.38
2017-10-30T15:32:28.869Z,100366.06
2017-10-30T15:34:55.253Z,100375.17
2017-10-30T15:37:23.738Z,100378.28
2017-10-30T15:39:50.122Z,100372.11
2017-10-30T15:42:16.563Z,100382.86
2017-10-30T15:44:42.927Z,100385.91
2017-10-30T15:47:09.356Z,100388.63
2017-10-30T15:49:35.873Z,100394.92
2017-10-30T15:52:02.341Z,100396.53
2017-10-30T15:54:28.767Z,100393.08
2017-10-30T15:56:55.397Z,100395.34
2017-10-30T15:59:21.793Z,100365.64
2017-10-30T16:01:48.161Z,100400.48
2017-10-30T16:04:14.527Z,100404.44
2017-10-30T16:06:40.945Z,100403.64
2017-10-30T16:09:07.729Z,100410.79
2017-10-30T16:11:34.101Z,100414.24
2017-10-30T16:14:01.880Z,100417.74
2017-10-30T16:16:28.198Z,100424.86
2017-10-30T16:18:54.636Z,100424.20
2017-10-30T16:21:21.013Z,100421.34
2017-10-30T16:23:48.038Z,100425.39
2017-10-30T16:26:14.802Z,100430.75
2017-10-30T16:28:41.204Z,100426.87
2017-10-30T16:31:07.518Z,100435.84
2017-10-30T16:33:33.882Z,100442.79
2017-10-30T16:36:00.960Z,100444.41
2017-10-30T16:38:27.335Z,100458.03
2017-10-30T16:40:53.762Z,100448.69
2017-10-30T16:43:20.127Z,100454.37
2017-10-30T16:45:47.223Z,100460.58
2017-10-30T16:48:13.546Z,100465.14
2017-10-30T16:50:39.816Z,100462.39
2017-10-30T16:53:06.575Z,100461.47
2017-10-30T16:55:32.844Z,100468.59
2017-10-30T16:57:59.225Z,100484.35
2017-10-30T17:00:25.561Z,100488.75
2017-10-30T17:02:51.995Z,100474.41
2017-10-30T17:05:19.107Z,100477.83
2017-10-30T17:07:45.444Z,100474.63
2017-10-30T17:10:11.766Z,100477.70
2017-10-30T17:12:38.104Z,100493.28
2017-10-30T17:15:04.472Z,100488.46
2017-10-30T17:17:30.869Z,100492.47
2017-10-30T17:19:57.404Z,100496.60
2017-10-30T17:22:23.875Z,100503.28
2017-10-30T17:24:51.131Z,100503.18
2017-10-30T17:27:18.204Z,100502.66
2017-10-30T17:29:44.542Z,100504.94
2017-10-30T17:32:10.887Z,100504.25
2017-10-30T17:34:37.362Z,100507.55
2017-10-30T17:37:03.698Z,100509.04
2017-10-30T17:39:30.021Z,100508.39
2017-10-30T17:41:57.140Z,100498.78
2017-10-30T17:44:23.434Z,100517.30
2017-10-30T17:46:49.772Z,100518.19
2017-10-30T17:49:16.863Z,100512.13
2017-10-30T17:51:43.240Z,100515.09
2017-10-30T17:54:10.543Z,100512.13
2017-10-30T17:56:36.839Z,100516.30
2017-10-30T17:59:03.895Z,100517.63
2017-10-30T18:01:30.286Z,100522.80
2017-10-30T18:03:56.665Z,100519.88
2017-10-30T18:06:23.005Z,100515.22
2017-10-30T18:08:49.313Z,100513.95
2017-10-30T18:11:16.355Z,100520.72
2017-10-30T18:13:43.389Z,100513.23
2017-10-30T18:16:10.530Z,100524.28
2017-10-30T18:18:36.946Z,100530.19
2017-10-30T18:21:03.352Z,100539.41
2017-10-30T18:23:29.742Z,100540.27
2017-10-30T18:25:56.046Z,100540.45
2017-10-30T18:28:22.497Z,100537.52
2017-10-30T18:30:48.892Z,100539.36
2017-10-30T18:33:15.218Z,100540.92
2017-10-30T18:35:41.581Z,100533.23
2017-10-30T18:38:08.010Z,100533.98
2017-10-30T18:40:34.487Z,100539.61
2017-10-30T18:43:00.836Z,100537.53
2017-10-30T18:45:27.160Z,100544.07
2017-10-30T18:47:53.474Z,100548.36
2017-10-30T18:50:20.581Z,100550.99
2017-10-30T18:52:46.989Z,100551.23
2017-10-30T18:55:13.355Z,100558.70
2017-10-30T18:57:39.654Z,100560.09
2017-10-30T19:00:06.021Z,100559.09
2017-10-30T19:02:32.386Z,100552.98
2017-10-30T19:04:59.425Z,100550.69
2017-10-30T19:07:25.917Z,100551.08
2017-10-30T19:09:52.358Z,100555.05
2017-10-30T19:12:18.691Z,100558.58
2017-10-30T19:14:45.076Z,100556.80
2017-10-30T19:17:11.675Z,100559.73
2017-10-30T19:19:38.130Z,100566.33
2017-10-30T19:22:05.203Z,100568.98
2017-10-30T19:24:31.606Z,100566.53
2017-10-30T19:26:58.755Z,100574.67
2017-10-30T19:29:25.199Z,100572.83
2017-10-30T19:31:52.300Z,100573.80
2017-10-30T19:34:18.704Z,100572.53
2017-10-30T19:36:45.170Z,100572.19
2017-10-30T19:39:11.568Z,100573.46
2017-10-30T19:41:38.031Z,100571.73
2017-10-30T19:44:04.352Z,100578.38
2017-10-30T19:46:30.783Z,100578.41
2017-10-30T19:48:57.138Z,100580.52
2017-10-30T19:51:23.561Z,100572.20
2017-10-30T19:53:49.891Z,100580.89
2017-10-30T19:56:16.196Z,100573.17
2017-10-30T19:58:42.571Z,100578.30
2017-10-30T20:01:08.930Z,100579.17
2017-10-30T20:03:35.386Z,100573.30
2017-10-30T20:06:07.954Z,100581.84
2017-10-30T20:08:41.190Z,100589.45
2017-10-30T20:11:13.758Z,100586.71
2017-10-30T20:13:40.328Z,100589.31
2017-10-30T20:16:06.809Z,100596.98
2017-10-30T20:18:33.080Z,100596.16
2017-10-30T20:20:59.418Z,100597.66
2017-10-30T20:23:25.848Z,100597.97
2017-10-30T20:25:52.202Z,100605.15
2017-10-30T20:28:18.469Z,100605.30
2017-10-30T20:30:44.831Z,100604.78
2017-10-30T20:33:11.133Z,100603.72
2017-10-30T20:35:37.466Z,100607.94
2017-10-30T20:38:04.107Z,100607.83
2017-10-30T20:40:30.429Z,100600.28
2017-10-30T20:42:56.741Z,100596.43
2017-10-30T20:45:23.872Z,100603.09
2017-10-30T20:47:50.191Z,100599.08
2017-10-30T20:50:17.002Z,100600.05
2017-10-30T20:52:43.561Z,100601.52
2017-10-30T20:55:09.923Z,100599.63
2017-10-30T20:57:36.992Z,100597.70
2017-10-30T21:00:03.331Z,100600.06
2017-10-30T21:02:29.706Z,100611.22
2017-10-30T21:04:57.218Z,100601.64
2017-10-30T21:07:23.570Z,100609.34
2017-10-30T21:09:49.950Z,100603.42
2017-10-30T21:12:16.250Z,100609.91
2017-10-30T21:14:42.577Z,100602.69
2017-10-30T21:17:08.922Z,100608.44
2017-10-30T21:19:35.231Z,100611.78
2017-10-30T21:22:01.576Z,100613.95
2017-10-30T21:24:27.930Z,100611.42
2017-10-30T21:26:54.386Z,100601.67
2017-10-30T21:29:21.444Z,100596.04
2017-10-30T21:31:48.534Z,100587.55
2017-10-30T21:34:14.878Z,100591.05
2017-10-30T21:36:41.259Z,100598.97
2017-10-30T21:39:08.315Z,100592.45
2017-10-30T21:41:34.606Z,100598.92
2017-10-30T21:44:00.899Z,100588.56
2017-10-30T21:46:27.230Z,100586.98
2017-10-30T21:48:53.544Z,100589.94
2017-10-30T21:51:19.853Z,100584.89
2017-10-30T21:53:46.936Z,100587.00
2017-10-30T21:56:13.267Z,100594.18
2017-10-30T21:58:39.643Z,100587.16
2017-10-30T22:01:05.954Z,100594.96
2017-10-30T22:03:32.302Z,100595.20
2017-10-30T22:05:58.686Z,100588.67
2017-10-30T22:08:25.095Z,100589.05
2017-10-30T22:10:51.484Z,100601.41
2017-10-30T22:13:17.793Z,100601.05
2017-10-30T22:15:44.949Z,100597.42
2017-10-30T22:18:14.109Z,100607.34
2017-10-30T22:20:41.156Z,100594.64
2017-10-30T22:23:08.279Z,100599.05
2017-10-30T22:25:34.596Z,100600.22
2017-10-30T22:28:01.055Z,100593.19
2017-10-30T22:30:27.429Z,100594.20
2017-10-30T22:32:53.743Z,100589.05
2017-10-30T22:35:20.041Z,100587.73
2017-10-30T22:37:46.436Z,100595.98
2017-10-30T22:40:12.740Z,100594.33
2017-10-30T22:42:39.068Z,100597.38
2017-10-30T22:45:05.385Z,100596.73
2017-10-30T22:47:32.461Z,100597.55
2017-10-30T22:49:58.741Z,100598.56
2017-10-30T22:52:25.079Z,100604.20
2017-10-30T22:54:52.166Z,100597.66
2017-10-30T22:57:18.490Z,100602.97
2017-10-30T22:59:44.797Z,100597.53
2017-10-30T23:02:11.837Z,100612.07
2017-10-30T23:04:38.182Z,100604.45
2017-10-30T23:07:05.262Z,100605.92
2017-10-30T23:09:31.532Z,100608.27
2017-10-30T23:11:57.826Z,100613.64
2017-10-30T23:14:24.160Z,100608.59
2017-10-30T23:16:51.317Z,100608.72
2017-10-30T23:19:17.643Z,100604.97
2017-10-30T23:21:44.027Z,100593.65
2017-10-30T23:24:10.367Z,100602.89
2017-10-30T23:26:37.445Z,100608.11
2017-10-30T23:29:03.741Z,100608.81
2017-10-30T23:31:30.097Z,100607.53
2017-10-30T23:33:56.435Z,100617.35
2017-10-30T23:36:22.915Z,100619.42
2017-10-30T23:38:49.526Z,100641.80
2017-10-30T23:41:15.826Z,100627.95
2017-10-30T23:43:42.956Z,100624.75
2017-10-30T23:46:10.052Z,100619.30
2017-10-30T23:48:36.331Z,100612.46
2017-10-30T23:51:02.640Z,100611.78
2017-10-30T23:53:29.221Z,100603.94
2017-10-30T23:55:56.322Z,100608.23
2017-10-30T23:58:23.295Z,100608.27
